createdAt,value
2018-07-27T00:00:40.885Z,99081.52
2018-07-27T00:03:08.775Z,99082.28
2018-07-27T00:05:36.644Z,99086.07
2018-07-27T00:08:04.625Z,99087.64
2018-07-27T00:10:32.525Z,99087.53
2018-07-27T00:13:00.395Z,99085.25
2018-07-27T00:15:28.277Z,99076.14
2018-07-27T00:17:56.166Z,99079.61
2018-07-27T00:20:23.981Z,99078.52
2018-07-27T00:22:51.908Z,99077.02
2018-07-27T00:25:19.737Z,99072.08
2018-07-27T00:27:47.637Z,99067.09
2018-07-27T00:30:15.506Z,99063.95
2018-07-27T00:32:43.397Z,99067.38
2018-07-27T00:35:11.240Z,99059.80
2018-07-27T00:37:39.094Z,99064.48
2018-07-27T00:40:06.959Z,99056.36
2018-07-27T00:42:34.830Z,99055.56
2018-07-27T00:45:02.690Z,99058.69
2018-07-27T00:47:30.609Z,99060.05
2018-07-27T00:49:58.430Z,99063.45
2018-07-27T00:52:26.246Z,99056.84
2018-07-27T00:54:54.179Z,99056.77
2018-07-27T00:57:22.057Z,99044.87
2018-07-27T00:59:49.905Z,99046.26
2018-07-27T01:02:17.797Z,99042.17
2018-07-27T01:04:45.641Z,99041.59
2018-07-27T01:07:13.514Z,99050.54
2018-07-27T01:09:41.409Z,99050.89
2018-07-27T01:12:09.279Z,99056.02
2018-07-27T01:14:37.099Z,99044.04
2018-07-27T01:17:04.959Z,99053.19
2018-07-27T01:19:32.844Z,99050.22
2018-07-27T01:22:00.785Z,99055.22
2018-07-27T01:24:28.638Z,99056.25
2018-07-27T01:26:56.508Z,99049.69
2018-07-27T01:29:24.372Z,99049.18
2018-07-27T01:31:52.199Z,99046.31
2018-07-27T01:34:20.079Z,99044.59
2018-07-27T01:36:47.910Z,99048.20
2018-07-27T01:39:15.740Z,99049.24
2018-07-27T01:41:43.773Z,99050.33
2018-07-27T01:44:11.892Z,99047.32
2018-07-27T01:46:40.377Z,99048.47
2018-07-27T01:49:09.010Z,99053.14
2018-07-27T01:51:36.848Z,99045.23
2018-07-27T01:54:04.852Z,99053.31
2018-07-27T01:56:32.915Z,99052.75
2018-07-27T01:59:00.856Z,99052.05
2018-07-27T02:01:28.693Z,99058.67
2018-07-27T02:03:56.563Z,99057.56
2018-07-27T02:06:24.465Z,99056.45
2018-07-27T02:08:52.305Z,99057.83
2018-07-27T02:11:20.173Z,99056.77
2018-07-27T02:13:48.041Z,99050.97
2018-07-27T02:16:15.870Z,99057.84
2018-07-27T02:18:43.727Z,99060.06
2018-07-27T02:21:11.540Z,99061.43
2018-07-27T02:23:41.418Z,99061.43
2018-07-27T02:26:09.231Z,99066.92
2018-07-27T02:28:37.109Z,99061.72
2018-07-27T02:31:05.141Z,99068.92
2018-07-27T02:33:32.996Z,99065.65
2018-07-27T02:36:00.918Z,99072.46
2018-07-27T02:38:28.777Z,99062.06
2018-07-27T02:40:56.604Z,99072.89
2018-07-27T02:43:24.434Z,99074.59
2018-07-27T02:45:52.270Z,99073.50
2018-07-27T02:48:20.138Z,99075.41
2018-07-27T02:50:47.961Z,99073.14
2018-07-27T02:53:15.803Z,99073.39
2018-07-27T02:55:43.658Z,99073.34
2018-07-27T02:58:11.514Z,99072.97
2018-07-27T03:00:39.384Z,99073.73
2018-07-27T03:03:07.265Z,99072.56
2018-07-27T03:05:35.086Z,99076.74
2018-07-27T03:08:02.931Z,99074.23
2018-07-27T03:10:30.846Z,99071.36
2018-07-27T03:12:58.748Z,99069.02
2018-07-27T03:15:26.635Z,99076.78
2018-07-27T03:17:54.558Z,99073.89
2018-07-27T03:20:22.441Z,99073.04
2018-07-27T03:22:50.305Z,99067.17
2018-07-27T03:25:18.214Z,99065.28
2018-07-27T03:27:46.089Z,99066.58
2018-07-27T03:30:14.061Z,99073.22
2018-07-27T03:32:41.943Z,99068.17
2018-07-27T03:35:09.792Z,99064.23
2018-07-27T03:37:37.754Z,99075.62
2018-07-27T03:40:05.725Z,99078.48
2018-07-27T03:42:33.579Z,99079.91
2018-07-27T03:45:01.431Z,99080.57
2018-07-27T03:47:29.293Z,99076.13
2018-07-27T03:49:57.167Z,99081.55
2018-07-27T03:52:24.982Z,99079.00
2018-07-27T03:54:52.802Z,99074.27
2018-07-27T03:57:20.639Z,99074.53
2018-07-27T03:59:48.497Z,99072.73
2018-07-27T04:02:16.579Z,99077.58
2018-07-27T04:04:44.438Z,99074.66
2018-07-27T04:07:12.337Z,99073.00
2018-07-27T04:09:40.249Z,99066.55
2018-07-27T04:12:08.144Z,99061.05
2018-07-27T04:14:36.044Z,99059.33
2018-07-27T04:17:03.905Z,99057.66
2018-07-27T04:19:31.786Z,99058.81
2018-07-27T04:21:59.929Z,99060.64
2018-07-27T04:24:27.784Z,99062.42
2018-07-27T04:26:55.626Z,99054.55
2018-07-27T04:29:23.473Z,99051.19
2018-07-27T04:31:51.382Z,99041.42
2018-07-27T04:34:19.275Z,99032.34
2018-07-27T04:36:47.244Z,99021.73
2018-07-27T04:39:15.111Z,99005.30
2018-07-27T04:41:42.951Z,99003.20
2018-07-27T04:44:10.778Z,98994.76
2018-07-27T04:46:38.690Z,98998.73
2018-07-27T04:49:06.535Z,99009.13
2018-07-27T04:51:34.394Z,99016.77
2018-07-27T04:54:02.236Z,99014.46
2018-07-27T04:56:30.131Z,99011.63
2018-07-27T04:58:58.006Z,99015.53
2018-07-27T05:01:25.894Z,99016.81
2018-07-27T05:03:55.510Z,99017.00
2018-07-27T05:06:23.420Z,99013.36
2018-07-27T05:08:56.786Z,99015.45
2018-07-27T05:11:24.643Z,99018.91
2018-07-27T05:13:52.532Z,99032.47
2018-07-27T05:16:20.412Z,99047.87
2018-07-27T05:18:48.277Z,99048.69
2018-07-27T05:21:16.135Z,99048.39
2018-07-27T05:23:43.965Z,99051.56
2018-07-27T05:26:11.818Z,99046.17
2018-07-27T05:28:39.675Z,99044.92
2018-07-27T05:31:07.537Z,99048.83
2018-07-27T05:33:35.355Z,99043.66
2018-07-27T05:36:03.282Z,99037.82
2018-07-27T05:38:31.126Z,99039.89
2018-07-27T05:40:58.986Z,99039.52
2018-07-27T05:43:26.849Z,99043.83
2018-07-27T05:45:54.690Z,99039.44
2018-07-27T05:48:22.528Z,99046.23
2018-07-27T05:50:50.389Z,99046.17
2018-07-27T05:53:18.290Z,99052.25
2018-07-27T05:55:46.104Z,99054.34
2018-07-27T05:58:13.949Z,99044.98
2018-07-27T06:00:41.766Z,99039.84
2018-07-27T06:03:09.695Z,99049.78
2018-07-27T06:05:37.570Z,99048.14
2018-07-27T06:08:05.453Z,99052.33
2018-07-27T06:10:33.372Z,99064.54
2018-07-27T06:13:01.341Z,99057.02
2018-07-27T06:15:29.193Z,99073.64
2018-07-27T06:17:57.084Z,99078.63
2018-07-27T06:20:24.909Z,99069.84
2018-07-27T06:22:52.829Z,99070.16
2018-07-27T06:25:20.721Z,99056.31
2018-07-27T06:27:48.587Z,99069.55
2018-07-27T06:30:16.523Z,99062.48
2018-07-27T06:32:44.368Z,99055.33
2018-07-27T06:35:12.272Z,99064.06
2018-07-27T06:37:40.195Z,99067.12
2018-07-27T06:40:08.095Z,99078.70
2018-07-27T06:42:35.933Z,99064.02
2018-07-27T06:45:05.098Z,99058.28
2018-07-27T06:47:32.989Z,99058.94
2018-07-27T06:50:00.853Z,99063.77
2018-07-27T06:52:28.764Z,99062.71
2018-07-27T06:54:56.621Z,99055.47
2018-07-27T06:57:24.474Z,99055.05
2018-07-27T06:59:52.325Z,99053.35
2018-07-27T07:02:20.162Z,99054.64
2018-07-27T07:04:48.024Z,99053.86
2018-07-27T07:07:15.907Z,99060.42
2018-07-27T07:09:43.710Z,99060.31
2018-07-27T07:12:11.537Z,99055.54
2018-07-27T07:14:39.373Z,99069.42
2018-07-27T07:17:07.268Z,99060.64
2018-07-27T07:19:35.121Z,99059.47
2018-07-27T07:22:03.006Z,99060.53
2018-07-27T07:24:30.841Z,99058.91
2018-07-27T07:26:58.694Z,99057.11
2018-07-27T07:29:26.527Z,99057.11
2018-07-27T07:31:54.396Z,99061.98
2018-07-27T07:34:22.230Z,99057.81
2018-07-27T07:36:50.083Z,99053.02
2018-07-27T07:39:17.957Z,99055.39
2018-07-27T07:41:45.816Z,99043.03
2018-07-27T07:44:13.675Z,99043.09
2018-07-27T07:46:41.549Z,99049.97
2018-07-27T07:49:09.452Z,99054.38
2018-07-27T07:51:37.858Z,99056.00
2018-07-27T07:54:05.855Z,99040.58
2018-07-27T07:56:33.990Z,99042.22
2018-07-27T07:59:02.219Z,99041.19
2018-07-27T08:01:30.244Z,99043.16
2018-07-27T08:03:58.122Z,99042.16
2018-07-27T08:06:26.018Z,99042.33
2018-07-27T08:08:54.454Z,99038.91
2018-07-27T08:11:22.313Z,99040.36
2018-07-27T08:13:50.241Z,99036.62
2018-07-27T08:16:18.128Z,99033.91
2018-07-27T08:18:45.989Z,99030.98
2018-07-27T08:21:14.306Z,99024.55
2018-07-27T08:23:42.276Z,99028.91
2018-07-27T08:26:34.437Z,99029.38
2018-07-27T08:29:02.505Z,99026.20
2018-07-27T08:31:31.013Z,99017.28
2018-07-27T08:33:58.861Z,99017.65
2018-07-27T08:36:27.484Z,99015.22
2018-07-27T08:38:55.675Z,99016.16
2018-07-27T08:41:23.937Z,99018.41
2018-07-27T08:43:52.433Z,99028.10
2018-07-27T08:46:20.646Z,99035.26
2018-07-27T08:48:48.740Z,99043.58
2018-07-27T08:51:16.922Z,99040.53
2018-07-27T08:53:45.053Z,99042.11
2018-07-27T08:56:13.251Z,99026.09
2018-07-27T08:58:41.363Z,99022.27
2018-07-27T09:01:09.561Z,99017.73
2018-07-27T09:03:37.718Z,99017.48
2018-07-27T09:06:06.126Z,99017.31
2018-07-27T09:08:34.232Z,99020.83
2018-07-27T09:11:02.313Z,99014.81
2018-07-27T09:13:30.601Z,99011.48
2018-07-27T09:15:58.719Z,99011.34
2018-07-27T09:18:26.876Z,99009.55
2018-07-27T09:20:55.032Z,99009.78
2018-07-27T09:23:23.196Z,99001.03
2018-07-27T09:25:51.296Z,98996.48
2018-07-27T09:28:19.387Z,99009.27
2018-07-27T09:30:47.546Z,99003.96
2018-07-27T09:33:16.011Z,99007.78
2018-07-27T09:35:44.178Z,98998.42
2018-07-27T09:38:12.269Z,99001.15
2018-07-27T09:40:40.383Z,98989.38
2018-07-27T09:43:08.454Z,98980.64
2018-07-27T09:45:36.581Z,98976.56
2018-07-27T09:48:04.794Z,98974.83
2018-07-27T09:50:32.933Z,98973.54
2018-07-27T09:53:01.018Z,98964.70
2018-07-27T09:55:29.117Z,98970.83
2018-07-27T09:57:57.206Z,98952.91
2018-07-27T10:00:31.006Z,98949.72
2018-07-27T10:02:59.129Z,98946.68
2018-07-27T10:05:27.216Z,98948.92
2018-07-27T10:07:55.357Z,98946.84
2018-07-27T10:10:23.483Z,98948.34
2018-07-27T10:12:51.895Z,98954.77
2018-07-27T10:15:20.001Z,98940.33
2018-07-27T10:17:48.558Z,98948.60
2018-07-27T10:20:16.715Z,98950.01
2018-07-27T10:22:44.857Z,98945.75
2018-07-27T10:25:12.925Z,98952.08
2018-07-27T10:27:41.134Z,98939.63
2018-07-27T10:30:09.261Z,98943.00
2018-07-27T10:32:37.455Z,98938.99
2018-07-27T10:35:05.573Z,98931.61
2018-07-27T10:37:33.769Z,98924.96
2018-07-27T10:40:01.910Z,98920.97
2018-07-27T10:42:30.105Z,98922.02
2018-07-27T10:44:58.284Z,98918.66
2018-07-27T10:47:26.457Z,98920.84
2018-07-27T10:49:54.543Z,98918.49
2018-07-27T10:52:22.726Z,98917.47
2018-07-27T10:54:50.910Z,98916.45
2018-07-27T10:57:19.054Z,98923.88
2018-07-27T10:59:47.237Z,98913.20
2018-07-27T11:02:15.416Z,98916.59
2018-07-27T11:04:43.546Z,98919.34
2018-07-27T11:07:11.705Z,98920.63
2018-07-27T11:09:39.868Z,98915.78
2018-07-27T11:12:08.061Z,98928.75
2018-07-27T11:14:37.062Z,98920.75
2018-07-27T11:17:05.172Z,98929.92
2018-07-27T11:19:33.675Z,98928.16
2018-07-27T11:22:01.781Z,98925.64
2018-07-27T11:24:29.893Z,98927.11
2018-07-27T11:26:58.013Z,98923.32
2018-07-27T11:29:26.186Z,98923.42
2018-07-27T11:31:54.493Z,98923.09
2018-07-27T11:34:22.605Z,98922.53
2018-07-27T11:36:50.723Z,98921.71
2018-07-27T11:39:18.862Z,98919.27
2018-07-27T11:41:47.495Z,98924.27
2018-07-27T11:44:15.685Z,98925.16
2018-07-27T11:46:43.746Z,98922.80
2018-07-27T11:49:11.936Z,98927.01
2018-07-27T11:51:39.995Z,98929.62
2018-07-27T11:54:08.206Z,98931.73
2018-07-27T11:56:36.286Z,98926.78
2018-07-27T11:59:04.511Z,98929.20
2018-07-27T12:01:32.656Z,98923.78
2018-07-27T12:04:00.761Z,98933.01
2018-07-27T12:06:29.041Z,98922.00
2018-07-27T12:08:57.169Z,98906.20
2018-07-27T12:11:25.318Z,98914.13
2018-07-27T12:13:53.432Z,98908.52
2018-07-27T12:16:21.566Z,98900.94
2018-07-27T12:18:49.679Z,98909.48
2018-07-27T12:21:17.913Z,98905.23
2018-07-27T12:23:46.005Z,98910.16
2018-07-27T12:26:14.110Z,98913.04
2018-07-27T12:28:42.189Z,98904.33
2018-07-27T12:31:10.296Z,98911.99
2018-07-27T12:33:38.357Z,98904.34
2018-07-27T12:36:06.611Z,98906.75
2018-07-27T12:38:35.083Z,98893.13
2018-07-27T12:41:03.168Z,98895.53
2018-07-27T12:43:31.292Z,98891.70
2018-07-27T12:45:59.348Z,98906.45
2018-07-27T12:48:27.292Z,98915.19
2018-07-27T12:50:55.288Z,98912.58
2018-07-27T12:53:23.143Z,98905.31
2018-07-27T12:55:51.028Z,98904.30
2018-07-27T12:58:18.896Z,98919.94
2018-07-27T13:00:46.749Z,98918.96
2018-07-27T13:03:14.635Z,98932.08
2018-07-27T13:05:42.537Z,98955.36
2018-07-27T13:08:10.416Z,98955.92
2018-07-27T13:10:38.242Z,98975.00
2018-07-27T13:13:06.128Z,98969.31
2018-07-27T13:15:33.970Z,98985.02
2018-07-27T13:18:02.172Z,98988.37
2018-07-27T13:20:41.187Z,98980.13
2018-07-27T13:23:09.112Z,98974.55
2018-07-27T13:25:36.919Z,98982.23
2018-07-27T13:30:32.755Z,98971.69
2018-07-27T13:35:28.323Z,98992.91
2018-07-27T13:37:56.186Z,98993.80
2018-07-27T13:40:24.033Z,98997.70
2018-07-27T13:42:52.041Z,98980.27
2018-07-27T13:45:20.041Z,98980.59
2018-07-27T13:47:48.062Z,98975.43
2018-07-27T13:50:15.992Z,98972.00
2018-07-27T13:52:43.997Z,98965.00
2018-07-27T13:55:11.935Z,98958.89
2018-07-27T13:57:39.842Z,98955.89
2018-07-27T14:00:07.867Z,98946.75
2018-07-27T14:02:35.802Z,98941.16
2018-07-27T14:05:03.855Z,98941.30
2018-07-27T14:07:31.955Z,98928.63
2018-07-27T14:09:59.980Z,98926.20
2018-07-27T14:12:27.989Z,98930.45
2018-07-27T14:14:55.944Z,98930.72
2018-07-27T14:17:23.790Z,98930.72
2018-07-27T14:19:51.637Z,98922.16
2018-07-27T14:22:19.476Z,98925.50
2018-07-27T14:24:47.290Z,98932.45
2018-07-27T14:27:15.115Z,98930.51
2018-07-27T14:29:43.138Z,98938.17
2018-07-27T14:32:10.977Z,98943.93
2018-07-27T14:34:38.785Z,98936.45
2018-07-27T14:37:06.662Z,98945.65
2018-07-27T14:39:34.523Z,98952.27
2018-07-27T14:42:02.506Z,98953.11
2018-07-27T14:44:30.434Z,98958.18
2018-07-27T14:46:58.225Z,98961.99
2018-07-27T14:49:26.049Z,98960.27
2018-07-27T14:51:53.914Z,98963.96
2018-07-27T14:54:21.742Z,98963.31
2018-07-27T14:56:49.570Z,98962.03
2018-07-27T14:59:17.697Z,98958.39
2018-07-27T15:01:45.547Z,98949.75
2018-07-27T15:04:13.390Z,98938.98
2018-07-27T15:06:41.300Z,98947.58
2018-07-27T15:09:13.133Z,98944.77
2018-07-27T15:11:41.614Z,98948.81
2018-07-27T15:14:09.534Z,98953.10
2018-07-27T15:16:37.494Z,98952.89
2018-07-27T15:19:05.379Z,98960.08
2018-07-27T15:21:33.227Z,98956.02
2018-07-27T15:24:01.143Z,98958.86
2018-07-27T15:26:29.226Z,98944.88
2018-07-27T15:28:57.218Z,98948.89
2018-07-27T15:31:25.041Z,98948.86
2018-07-27T15:33:52.912Z,98945.05
2018-07-27T15:36:20.829Z,98948.23
2018-07-27T15:38:48.700Z,98950.01
2018-07-27T15:41:16.520Z,98946.53
2018-07-27T15:43:44.389Z,98945.33
2018-07-27T15:46:12.261Z,98942.77
2018-07-27T15:48:40.142Z,98936.57
2018-07-27T15:51:08.059Z,98929.23
2018-07-27T15:53:35.897Z,98928.09
2018-07-27T15:56:03.734Z,98922.27
2018-07-27T15:58:31.613Z,98917.65
2018-07-27T16:00:59.506Z,98916.84
2018-07-27T16:03:27.369Z,98917.97
2018-07-27T16:05:55.190Z,98921.91
2018-07-27T16:08:23.022Z,98920.55
2018-07-27T16:10:50.894Z,98924.23
2018-07-27T16:13:18.741Z,98929.02
2018-07-27T16:15:46.754Z,98923.02
2018-07-27T16:18:14.645Z,98917.80
2018-07-27T16:20:42.493Z,98923.23
2018-07-27T16:23:10.369Z,98922.61
2018-07-27T16:25:38.272Z,98925.84
2018-07-27T16:28:06.090Z,98921.95
2018-07-27T16:30:33.921Z,98922.80
2018-07-27T16:33:01.924Z,98926.68
2018-07-27T16:35:29.790Z,98931.67
2018-07-27T16:37:57.789Z,98934.73
2018-07-27T16:40:25.677Z,98936.16
2018-07-27T16:42:53.509Z,98939.22
2018-07-27T16:45:21.344Z,98936.38
2018-07-27T16:47:49.400Z,98943.49
2018-07-27T16:50:17.366Z,98953.75
2018-07-27T16:52:45.227Z,98947.07
2018-07-27T16:55:13.144Z,98955.83
2018-07-27T16:57:41.020Z,98951.25
2018-07-27T17:00:08.941Z,98948.78
2018-07-27T17:02:36.797Z,98953.47
2018-07-27T17:05:05.042Z,98952.17
2018-07-27T17:07:32.999Z,98951.72
2018-07-27T17:10:00.920Z,98945.33
2018-07-27T17:12:28.782Z,98945.00
2018-07-27T17:14:56.617Z,98945.19
2018-07-27T17:17:24.535Z,98948.27
2018-07-27T17:19:52.467Z,98950.98
2018-07-27T17:22:20.368Z,98946.38
2018-07-27T17:24:48.321Z,98952.20
2018-07-27T17:27:16.226Z,98950.63
2018-07-27T17:29:44.274Z,98953.96
2018-07-27T17:32:12.172Z,98957.39
2018-07-27T17:34:40.061Z,98955.52
2018-07-27T17:37:08.008Z,98952.31
2018-07-27T17:39:35.944Z,98959.25
2018-07-27T17:42:03.875Z,98949.41
2018-07-27T17:44:31.792Z,98964.06
2018-07-27T17:47:00.719Z,98968.73
2018-07-27T17:49:28.600Z,98973.95
2018-07-27T17:51:56.497Z,98986.39
2018-07-27T17:54:24.408Z,98994.58
2018-07-27T17:56:52.256Z,98999.24
2018-07-27T17:59:20.113Z,99001.14
2018-07-27T18:01:48.079Z,99001.55
2018-07-27T18:04:15.945Z,99012.81
2018-07-27T18:06:43.877Z,99010.91
2018-07-27T18:09:12.532Z,99020.01
2018-07-27T18:11:40.352Z,99022.11
2018-07-27T18:14:08.282Z,99019.31
2018-07-27T18:16:36.166Z,99025.22
2018-07-27T18:19:04.121Z,99026.41
2018-07-27T18:21:32.062Z,99031.53
2018-07-27T18:23:59.935Z,99038.00
2018-07-27T18:26:27.833Z,99047.80
2018-07-27T18:28:55.733Z,99053.03
2018-07-27T18:31:23.632Z,99057.00
2018-07-27T18:33:51.480Z,99055.61
2018-07-27T18:36:19.338Z,99051.45
2018-07-27T18:38:47.190Z,99053.96
2018-07-27T18:41:15.059Z,99057.36
2018-07-27T18:43:42.942Z,99052.58
2018-07-27T18:46:10.810Z,99051.98
2018-07-27T18:48:38.880Z,99054.16
2018-07-27T18:51:06.810Z,99053.88
2018-07-27T18:53:34.708Z,99054.34
2018-07-27T18:56:02.546Z,99060.55
2018-07-27T18:58:30.382Z,99059.00
2018-07-27T19:00:58.224Z,99061.41
2018-07-27T19:03:26.079Z,99061.34
2018-07-27T19:05:53.934Z,99064.55
2018-07-27T19:08:21.801Z,99066.24
2018-07-27T19:10:49.695Z,99070.58
2018-07-27T19:13:17.653Z,99072.23
2018-07-27T19:15:45.576Z,99070.87
2018-07-27T19:18:13.465Z,99072.31
2018-07-27T19:20:41.304Z,99070.61
2018-07-27T19:23:09.233Z,99061.94
2018-07-27T19:25:37.097Z,99064.69
2018-07-27T19:28:05.323Z,99059.58
2018-07-27T19:30:33.252Z,99054.14
2018-07-27T19:33:01.153Z,99042.95
2018-07-27T19:35:29.025Z,99045.85
2018-07-27T19:37:56.910Z,99042.01
2018-07-27T19:40:24.824Z,99044.45
2018-07-27T19:42:52.689Z,99043.32
2018-07-27T19:45:20.603Z,99040.05
2018-07-27T19:47:48.549Z,99035.84
2018-07-27T19:50:16.423Z,99040.48
2018-07-27T19:52:44.300Z,99035.83
2018-07-27T19:55:12.155Z,99033.78
2018-07-27T19:57:40.060Z,99031.70
2018-07-27T20:00:08.221Z,99030.56
2018-07-27T20:02:36.131Z,99029.91
2018-07-27T20:05:04.184Z,99029.47
2018-07-27T20:07:32.107Z,99030.98
2018-07-27T20:09:59.999Z,99028.05
2018-07-27T20:12:27.941Z,99027.39
2018-07-27T20:14:55.824Z,99022.12
2018-07-27T20:17:23.690Z,99017.37
2018-07-27T20:19:51.569Z,99004.83
2018-07-27T20:22:19.545Z,99009.75
2018-07-27T20:24:47.445Z,99005.62
2018-07-27T20:27:15.321Z,99018.09
2018-07-27T20:29:43.189Z,99021.26
2018-07-27T20:32:11.077Z,99031.74
2018-07-27T20:34:38.953Z,99032.80
2018-07-27T20:37:06.838Z,99031.28
2018-07-27T20:39:34.708Z,99029.25
2018-07-27T20:42:02.608Z,99031.05
2018-07-27T20:44:30.497Z,99028.67
2018-07-27T20:46:58.417Z,99027.20
2018-07-27T20:49:26.269Z,99029.23
2018-07-27T20:51:54.689Z,99023.11
2018-07-27T20:54:22.592Z,99023.26
2018-07-27T20:56:50.490Z,99028.67
2018-07-27T20:59:18.418Z,99020.38
2018-07-27T21:01:46.277Z,99019.63
2018-07-27T21:04:14.169Z,99009.31
2018-07-27T21:06:42.397Z,99005.81
2018-07-27T21:09:11.364Z,98998.80
2018-07-27T21:11:39.520Z,99001.39
2018-07-27T21:14:07.701Z,99001.83
2018-07-27T21:16:35.666Z,99002.66
2018-07-27T21:19:03.625Z,98997.30
2018-07-27T21:21:31.467Z,99003.86
2018-07-27T21:23:59.344Z,99001.58
2018-07-27T21:26:27.486Z,99002.19
2018-07-27T21:28:55.340Z,99000.36
2018-07-27T21:31:23.224Z,99011.02
2018-07-27T21:33:51.076Z,99007.73
2018-07-27T21:36:18.922Z,99005.59
2018-07-27T21:38:46.753Z,98995.59
2018-07-27T21:41:14.623Z,98993.91
2018-07-27T21:43:42.503Z,98999.05
2018-07-27T21:46:10.352Z,99003.37
2018-07-27T21:48:38.246Z,99003.02
2018-07-27T21:51:06.132Z,99006.64
2018-07-27T21:53:34.056Z,99014.92
2018-07-27T21:56:01.949Z,99008.38
2018-07-27T21:58:29.844Z,99011.34
2018-07-27T22:00:57.876Z,99013.22
2018-07-27T22:03:25.786Z,99019.80
2018-07-27T22:05:53.681Z,99016.63
2018-07-27T22:08:21.583Z,99015.42
2018-07-27T22:10:49.495Z,99011.14
2018-07-27T22:13:17.357Z,99013.61
2018-07-27T22:15:45.228Z,99007.34
2018-07-27T22:18:13.073Z,99006.48
2018-07-27T22:20:40.977Z,99005.05
2018-07-27T22:23:08.808Z,98996.58
2018-07-27T22:25:36.667Z,98998.91
2018-07-27T22:28:04.580Z,99000.34
2018-07-27T22:30:32.474Z,99002.56
2018-07-27T22:33:00.333Z,98997.56
2018-07-27T22:35:28.165Z,98990.16
2018-07-27T22:37:55.982Z,98998.27
2018-07-27T22:40:23.841Z,99000.99
2018-07-27T22:42:51.680Z,99012.17
2018-07-27T22:45:19.541Z,98999.73
2018-07-27T22:47:47.345Z,98994.59
2018-07-27T22:50:15.206Z,99000.64
2018-07-27T22:52:43.038Z,98994.34
2018-07-27T22:55:11.940Z,98991.51
2018-07-27T22:57:40.869Z,98986.14
2018-07-27T23:00:13.029Z,98976.70
2018-07-27T23:02:41.388Z,98977.73
2018-07-27T23:05:09.364Z,98974.61
2018-07-27T23:07:37.733Z,98974.69
2018-07-27T23:10:06.420Z,98970.61
2018-07-27T23:12:34.261Z,98972.13
2018-07-27T23:15:02.228Z,98966.47
2018-07-27T23:17:30.123Z,98969.70
2018-07-27T23:19:58.070Z,98970.50
2018-07-27T23:22:26.023Z,98967.47
2018-07-27T23:24:53.846Z,98965.96
2018-07-27T23:27:21.765Z,98972.05
2018-07-27T23:29:49.617Z,98972.45
2018-07-27T23:32:17.442Z,98977.70
2018-07-27T23:34:45.260Z,98976.80
2018-07-27T23:37:13.081Z,98968.50
2018-07-27T23:39:40.901Z,98968.60
2018-07-27T23:42:08.775Z,98972.90
2018-07-27T23:44:36.626Z,98973.64
2018-07-27T23:47:04.498Z,98969.48
2018-07-27T23:49:32.334Z,98968.64
2018-07-27T23:52:00.338Z,98964.51
2018-07-27T23:54:28.162Z,98965.39
2018-07-27T23:56:55.986Z,98960.78
2018-07-27T23:59:23.912Z,98964.37
